createdAt,value
2018-12-12T00:01:45.997Z,5.57
2018-12-12T00:04:18.268Z,5.77
2018-12-12T00:06:50.927Z,4.97
2018-12-12T00:09:23.087Z,4.30
2018-12-12T00:11:55.235Z,4.90
2018-12-12T00:14:27.383Z,4.40
2018-12-12T00:16:59.564Z,4.70
2018-12-12T00:19:31.737Z,4.73
2018-12-12T00:22:04.183Z,4.50
2018-12-12T00:24:36.330Z,4.37
2018-12-12T00:27:08.479Z,4.20
2018-12-12T00:29:40.661Z,3.87
2018-12-12T00:32:12.815Z,3.60
2018-12-12T00:34:44.956Z,3.37
2018-12-12T00:37:16.997Z,3.77
2018-12-12T00:39:49.040Z,4.00
2018-12-12T00:42:21.186Z,3.37
2018-12-12T00:44:53.353Z,4.00
2018-12-12T00:47:25.498Z,3.33
2018-12-12T00:49:57.569Z,3.70
2018-12-12T00:52:29.719Z,3.43
2018-12-12T00:55:01.893Z,3.17
2018-12-12T00:57:34.096Z,3.60
2018-12-12T01:00:06.252Z,3.60
2018-12-12T01:02:38.393Z,3.37
2018-12-12T01:05:10.603Z,3.87
2018-12-12T01:07:42.768Z,3.77
2018-12-12T01:10:15.036Z,3.53
2018-12-12T01:12:47.100Z,4.80
2018-12-12T01:15:19.147Z,3.20
2018-12-12T01:17:51.295Z,3.50
2018-12-12T01:20:23.455Z,3.20
2018-12-12T01:22:55.612Z,3.70
2018-12-12T01:25:27.768Z,3.43
2018-12-12T01:28:00.044Z,3.87
2018-12-12T01:30:32.328Z,3.80
2018-12-12T01:33:04.495Z,3.57
2018-12-12T01:35:36.646Z,3.53
2018-12-12T01:38:08.947Z,3.77
2018-12-12T01:40:41.114Z,3.80
2018-12-12T01:43:13.423Z,3.50
2018-12-12T01:45:45.631Z,3.10
2018-12-12T01:48:17.756Z,3.87
2018-12-12T01:50:49.923Z,3.67
2018-12-12T01:53:22.076Z,3.50
2018-12-12T01:55:54.231Z,3.50
2018-12-12T01:58:26.386Z,3.30
2018-12-12T02:00:58.536Z,3.93
2018-12-12T02:03:30.689Z,4.03
2018-12-12T02:06:02.846Z,3.67
2018-12-12T02:08:35.020Z,2.73
2018-12-12T02:11:07.184Z,3.57
2018-12-12T02:13:39.324Z,4.20
2018-12-12T02:16:11.601Z,3.10
2018-12-12T02:18:45.113Z,4.13
2018-12-12T02:21:17.294Z,3.53
2018-12-12T02:23:49.451Z,3.93
2018-12-12T02:26:21.591Z,3.97
2018-12-12T02:28:53.628Z,3.93
2018-12-12T02:31:25.784Z,3.93
2018-12-12T02:33:57.944Z,4.60
2018-12-12T02:36:30.104Z,3.83
2018-12-12T02:39:03.864Z,4.10
2018-12-12T02:41:36.045Z,4.10
2018-12-12T02:44:08.179Z,4.07
2018-12-12T02:46:40.362Z,3.80
2018-12-12T02:49:12.515Z,3.43
2018-12-12T02:51:44.569Z,3.67
2018-12-12T02:54:16.728Z,4.00
2018-12-12T02:56:48.781Z,4.27
2018-12-12T02:59:20.936Z,4.00
2018-12-12T03:01:53.398Z,3.87
2018-12-12T03:04:25.457Z,3.83
2018-12-12T03:06:57.693Z,4.10
2018-12-12T03:09:29.845Z,4.13
2018-12-12T03:12:01.989Z,4.20
2018-12-12T03:14:34.168Z,3.97
2018-12-12T03:17:06.412Z,3.60
2018-12-12T03:19:38.573Z,3.80
2018-12-12T03:22:10.717Z,4.77
2018-12-12T03:24:42.856Z,4.70
2018-12-12T03:27:15.459Z,4.13
2018-12-12T03:29:47.596Z,4.37
2018-12-12T03:32:19.778Z,5.00
2018-12-12T03:34:51.911Z,4.80
2018-12-12T03:37:24.068Z,4.57
2018-12-12T03:39:56.668Z,4.80
2018-12-12T03:42:29.146Z,5.30
2018-12-12T03:45:01.344Z,4.47
2018-12-12T03:47:33.525Z,4.90
2018-12-12T03:50:05.773Z,5.03
2018-12-12T03:52:37.860Z,4.80
2018-12-12T03:55:10.021Z,5.43
2018-12-12T03:57:42.175Z,4.67
2018-12-12T04:00:14.326Z,4.23
2018-12-12T04:02:46.483Z,5.10
2018-12-12T04:05:18.648Z,4.70
2018-12-12T04:07:50.736Z,4.60
2018-12-12T04:10:22.908Z,4.90
2018-12-12T04:12:55.065Z,4.00
2018-12-12T04:15:27.111Z,4.47
2018-12-12T04:17:59.673Z,5.33
2018-12-12T04:20:31.761Z,4.70
2018-12-12T04:23:04.758Z,4.27
2018-12-12T04:25:37.104Z,4.60
2018-12-12T04:28:09.236Z,4.30
2018-12-12T04:30:41.858Z,4.50
2018-12-12T04:33:14.035Z,5.10
2018-12-12T04:35:46.192Z,5.00
2018-12-12T04:38:18.353Z,4.73
2018-12-12T04:40:50.541Z,5.30
2018-12-12T04:43:22.713Z,5.27
2018-12-12T04:45:54.878Z,5.73
2018-12-12T04:48:26.942Z,5.60
2018-12-12T04:50:59.126Z,5.63
2018-12-12T04:53:31.169Z,5.20
2018-12-12T04:56:03.344Z,5.37
2018-12-12T04:58:35.528Z,5.07
2018-12-12T05:01:07.587Z,4.27
2018-12-12T05:03:39.752Z,5.13
2018-12-12T05:06:11.814Z,5.77
2018-12-12T05:08:43.983Z,4.73
2018-12-12T05:11:16.048Z,5.87
2018-12-12T05:13:48.331Z,5.83
2018-12-12T05:16:20.370Z,5.47
2018-12-12T05:18:52.537Z,6.20
2018-12-12T05:21:24.700Z,6.00
2018-12-12T05:23:56.869Z,5.43
2018-12-12T05:26:29.055Z,7.00
2018-12-12T05:29:01.220Z,7.23
2018-12-12T05:31:33.491Z,7.03
2018-12-12T05:34:05.749Z,6.57
2018-12-12T05:36:37.810Z,6.27
2018-12-12T05:39:09.987Z,6.70
2018-12-12T05:41:42.060Z,7.70
2018-12-12T05:44:14.115Z,7.07
2018-12-12T05:46:46.264Z,9.00
2018-12-12T05:49:18.443Z,7.23
2018-12-12T05:51:50.604Z,7.43
2018-12-12T05:54:22.776Z,8.10
2018-12-12T05:56:54.929Z,9.40
2018-12-12T05:59:27.102Z,8.90
2018-12-12T06:01:59.290Z,8.37
2018-12-12T06:04:31.360Z,8.53
2018-12-12T06:07:03.522Z,8.00
2018-12-12T06:09:35.722Z,8.70
2018-12-12T06:12:07.932Z,11.87
2018-12-12T06:14:40.119Z,14.43
2018-12-12T06:17:12.292Z,10.77
2018-12-12T06:19:44.901Z,10.53
2018-12-12T06:22:17.482Z,10.70
2018-12-12T06:24:49.653Z,11.20
2018-12-12T06:27:21.795Z,10.40
2018-12-12T06:29:53.944Z,10.30
2018-12-12T06:32:26.099Z,10.37
2018-12-12T06:34:58.146Z,9.87
2018-12-12T06:37:30.300Z,10.00
2018-12-12T06:40:02.658Z,10.50
2018-12-12T06:42:34.837Z,10.53
2018-12-12T06:45:07.521Z,11.27
2018-12-12T06:47:39.672Z,11.00
2018-12-12T06:50:11.843Z,9.47
2018-12-12T06:52:43.996Z,9.80
2018-12-12T06:55:16.154Z,9.17
2018-12-12T06:57:48.408Z,10.33
2018-12-12T07:00:20.576Z,10.47
2018-12-12T07:02:52.723Z,9.70
2018-12-12T07:05:24.878Z,10.37
2018-12-12T07:07:56.824Z,9.80
2018-12-12T07:10:29.007Z,8.70
2018-12-12T07:13:01.184Z,8.53
2018-12-12T07:15:33.360Z,7.97
2018-12-12T07:18:05.532Z,8.13
2018-12-12T07:20:37.679Z,12.07
2018-12-12T07:23:09.824Z,25.80
2018-12-12T07:25:41.984Z,35.43
2018-12-12T07:28:14.137Z,25.50
2018-12-12T07:30:46.348Z,22.23
2018-12-12T07:33:18.501Z,10.13
2018-12-12T07:35:50.696Z,10.60
2018-12-12T07:38:22.867Z,9.50
2018-12-12T07:40:55.067Z,8.50
2018-12-12T07:43:27.224Z,9.07
2018-12-12T07:45:59.183Z,7.47
2018-12-12T07:48:31.350Z,8.40
2018-12-12T07:51:03.718Z,9.50
2018-12-12T07:53:35.883Z,8.57
2018-12-12T07:56:08.068Z,8.97
2018-12-12T07:58:40.212Z,9.00
2018-12-12T08:01:12.386Z,8.13
2018-12-12T08:03:44.521Z,7.60
2018-12-12T08:06:16.687Z,9.20
2018-12-12T08:08:48.828Z,9.00
2018-12-12T08:11:20.995Z,9.00
2018-12-12T08:13:53.140Z,7.57
2018-12-12T08:16:25.397Z,7.00
2018-12-12T08:18:57.554Z,8.03
2018-12-12T08:21:29.734Z,7.90
2018-12-12T08:24:01.885Z,8.13
2018-12-12T08:26:34.048Z,10.93
2018-12-12T08:29:06.199Z,9.73
2018-12-12T08:31:38.347Z,8.13
2018-12-12T08:34:10.504Z,8.27
2018-12-12T08:36:42.661Z,8.50
2018-12-12T08:39:14.826Z,8.07
2018-12-12T08:41:46.995Z,7.87
2018-12-12T08:44:19.163Z,9.33
2018-12-12T08:46:51.332Z,8.07
2018-12-12T08:49:23.532Z,8.63
2018-12-12T08:51:55.692Z,7.90
2018-12-12T08:54:27.859Z,7.17
2018-12-12T08:57:00.728Z,7.33
2018-12-12T08:59:32.886Z,7.80
2018-12-12T09:02:05.525Z,8.00
2018-12-12T09:04:37.833Z,8.63
2018-12-12T09:07:09.999Z,10.97
2018-12-12T09:09:42.185Z,18.87
2018-12-12T09:12:14.352Z,16.03
2018-12-12T09:14:46.417Z,13.23
2018-12-12T09:17:18.608Z,10.80
2018-12-12T09:19:50.668Z,8.40
2018-12-12T09:22:22.901Z,10.83
2018-12-12T09:24:55.081Z,7.53
2018-12-12T09:27:27.254Z,9.90
2018-12-12T09:29:59.319Z,10.50
2018-12-12T09:32:31.484Z,9.43
2018-12-12T09:35:03.770Z,9.13
2018-12-12T09:37:35.920Z,8.63
2018-12-12T09:40:08.080Z,8.13
2018-12-12T09:42:40.253Z,7.53
2018-12-12T09:45:12.404Z,7.60
2018-12-12T09:47:44.695Z,7.40
2018-12-12T09:50:17.085Z,10.40
2018-12-12T09:52:49.236Z,7.80
2018-12-12T09:55:21.395Z,8.23
2018-12-12T09:57:53.580Z,9.40
2018-12-12T10:00:25.832Z,8.63
2018-12-12T10:02:57.890Z,6.93
2018-12-12T10:05:30.105Z,7.00
2018-12-12T10:08:02.287Z,6.73
2018-12-12T10:10:34.444Z,7.10
2018-12-12T10:13:06.623Z,7.87
2018-12-12T10:15:38.759Z,7.00
2018-12-12T10:18:10.821Z,6.30
2018-12-12T10:20:43.019Z,5.93
2018-12-12T10:23:15.190Z,5.43
2018-12-12T10:25:47.343Z,5.47
2018-12-12T10:28:19.511Z,5.77
2018-12-12T10:30:51.660Z,5.57
2018-12-12T10:33:23.825Z,5.37
2018-12-12T10:35:55.883Z,5.53
2018-12-12T10:38:28.061Z,4.90
2018-12-12T10:41:00.224Z,4.43
2018-12-12T10:43:32.379Z,5.23
2018-12-12T10:46:04.559Z,5.07
2018-12-12T10:48:36.744Z,5.03
2018-12-12T10:51:08.916Z,4.57
2018-12-12T10:53:41.128Z,4.50
2018-12-12T10:56:13.329Z,4.80
2018-12-12T10:58:45.490Z,5.27
2018-12-12T11:01:23.441Z,4.77
2018-12-12T11:03:55.610Z,4.90
2018-12-12T11:06:27.786Z,4.43
2018-12-12T11:08:59.969Z,4.07
2018-12-12T11:11:32.232Z,4.57
2018-12-12T11:14:04.393Z,4.57
2018-12-12T11:16:36.568Z,4.53
2018-12-12T11:19:08.731Z,5.60
2018-12-12T11:21:40.900Z,4.30
2018-12-12T11:24:13.067Z,3.03
2018-12-12T11:26:45.316Z,5.17
2018-12-12T11:29:17.472Z,4.57
2018-12-12T11:31:49.659Z,4.87
2018-12-12T11:34:21.821Z,4.07
2018-12-12T11:36:53.989Z,4.60
2018-12-12T11:39:26.030Z,4.10
2018-12-12T11:41:58.186Z,4.30
2018-12-12T11:44:30.328Z,4.13
2018-12-12T11:47:02.896Z,5.17
2018-12-12T11:49:35.057Z,5.87
2018-12-12T11:52:07.244Z,5.33
2018-12-12T11:54:39.505Z,7.07
2018-12-12T11:57:12.184Z,5.43
2018-12-12T11:59:44.320Z,5.83
2018-12-12T12:02:16.517Z,5.40
2018-12-12T12:04:48.672Z,4.93
2018-12-12T12:07:20.909Z,5.50
2018-12-12T12:09:53.064Z,6.00
2018-12-12T12:12:25.377Z,7.23
2018-12-12T12:14:57.519Z,4.63
2018-12-12T12:17:31.472Z,3.73
2018-12-12T12:20:04.165Z,4.23
2018-12-12T12:22:36.310Z,3.83
2018-12-12T12:25:08.449Z,6.53
2018-12-12T12:27:40.622Z,5.67
2018-12-12T12:30:12.930Z,3.97
2018-12-12T12:32:45.119Z,3.27
2018-12-12T12:35:17.291Z,3.77
2018-12-12T12:37:49.449Z,4.93
2018-12-12T12:40:21.603Z,3.80
2018-12-12T12:42:53.770Z,3.47
2018-12-12T12:45:25.935Z,4.07
2018-12-12T12:48:02.151Z,3.77
2018-12-12T12:50:34.312Z,3.77
2018-12-12T12:53:06.480Z,4.60
2018-12-12T12:55:38.648Z,4.90
2018-12-12T12:58:10.833Z,7.23
2018-12-12T13:00:43.005Z,7.00
2018-12-12T13:03:15.120Z,10.63
2018-12-12T13:05:47.379Z,19.23
2018-12-12T13:08:19.547Z,12.83
2018-12-12T13:10:51.792Z,6.03
2018-12-12T13:13:24.567Z,5.80
2018-12-12T13:15:57.465Z,4.83
2018-12-12T13:18:29.738Z,3.77
2018-12-12T13:21:01.900Z,4.47
2018-12-12T13:23:33.964Z,4.80
2018-12-12T13:26:06.132Z,4.70
2018-12-12T13:28:38.321Z,4.27
2018-12-12T13:31:10.364Z,4.07
2018-12-12T13:33:42.523Z,4.50
2018-12-12T13:36:14.696Z,4.83
2018-12-12T13:38:48.678Z,4.30
2018-12-12T13:41:20.851Z,4.37
2018-12-12T13:43:53.025Z,4.73
2018-12-12T13:46:25.220Z,4.73
2018-12-12T13:48:57.376Z,4.77
2018-12-12T13:51:29.457Z,6.87
2018-12-12T13:54:01.720Z,5.03
2018-12-12T13:56:33.889Z,5.50
2018-12-12T13:59:06.075Z,7.40
2018-12-12T14:01:38.140Z,4.73
2018-12-12T14:04:10.318Z,4.83
2018-12-12T14:06:42.468Z,4.37
2018-12-12T14:09:14.637Z,4.67
2018-12-12T14:11:46.688Z,5.03
2018-12-12T14:14:18.969Z,5.57
2018-12-12T14:16:51.120Z,5.50
2018-12-12T14:19:23.332Z,6.43
2018-12-12T14:21:55.499Z,5.23
2018-12-12T14:24:27.568Z,5.97
2018-12-12T14:26:59.733Z,5.40
2018-12-12T14:29:31.916Z,5.70
2018-12-12T14:32:04.081Z,6.17
2018-12-12T14:34:36.283Z,5.17
2018-12-12T14:37:08.372Z,5.47
2018-12-12T14:39:40.423Z,4.90
2018-12-12T14:42:12.583Z,6.73
2018-12-12T14:44:44.796Z,5.93
2018-12-12T14:47:16.839Z,5.87
2018-12-12T14:49:48.896Z,6.23
2018-12-12T14:52:20.963Z,6.63
2018-12-12T14:54:53.021Z,6.97
2018-12-12T14:57:25.080Z,7.27
2018-12-12T14:59:57.252Z,6.60
2018-12-12T15:02:29.326Z,7.37
2018-12-12T15:05:01.417Z,7.07
2018-12-12T15:07:33.595Z,7.07
2018-12-12T15:10:05.802Z,7.67
2018-12-12T15:12:37.987Z,7.67
2018-12-12T15:15:10.172Z,7.73
2018-12-12T15:17:42.373Z,7.20
2018-12-12T15:20:14.570Z,7.93
2018-12-12T15:22:46.760Z,8.70
2018-12-12T15:25:18.970Z,8.93
2018-12-12T15:27:51.121Z,9.20
2018-12-12T15:30:23.292Z,10.20
2018-12-12T15:32:55.560Z,13.37
2018-12-12T15:35:27.735Z,12.73
2018-12-12T15:38:01.385Z,10.73
2018-12-12T15:40:33.792Z,9.97
2018-12-12T15:43:05.948Z,13.73
2018-12-12T15:45:38.008Z,12.00
2018-12-12T15:48:10.170Z,10.77
2018-12-12T15:50:42.340Z,11.63
2018-12-12T15:53:14.527Z,12.93
2018-12-12T15:55:46.696Z,13.83
2018-12-12T15:58:18.888Z,15.60
2018-12-12T16:00:51.235Z,15.83
2018-12-12T16:03:23.500Z,12.20
2018-12-12T16:05:55.559Z,11.27
2018-12-12T16:08:27.728Z,13.60
2018-12-12T16:10:59.921Z,13.40
2018-12-12T16:13:32.073Z,11.73
2018-12-12T16:16:04.229Z,12.47
2018-12-12T16:18:36.391Z,11.43
2018-12-12T16:21:08.462Z,12.10
2018-12-12T16:23:40.620Z,12.47
2018-12-12T16:26:12.886Z,13.23
2018-12-12T16:28:45.113Z,13.30
2018-12-12T16:31:17.288Z,13.33
2018-12-12T16:33:49.487Z,12.80
2018-12-12T16:36:21.673Z,12.83
2018-12-12T16:38:53.861Z,14.37
2018-12-12T16:41:26.025Z,13.67
2018-12-12T16:43:58.068Z,14.53
2018-12-12T16:46:30.260Z,12.47
2018-12-12T16:49:02.309Z,13.97
2018-12-12T16:51:34.492Z,13.10
2018-12-12T16:54:06.665Z,14.97
2018-12-12T16:56:38.864Z,14.33
2018-12-12T16:59:11.042Z,15.87
2018-12-12T17:01:43.240Z,14.10
2018-12-12T17:04:15.405Z,15.63
2018-12-12T17:06:47.595Z,15.20
2018-12-12T17:09:19.648Z,14.63
2018-12-12T17:11:51.825Z,14.33
2018-12-12T17:14:26.865Z,15.27
2018-12-12T17:16:59.036Z,13.33
2018-12-12T17:19:31.228Z,13.67
2018-12-12T17:22:03.445Z,14.20
2018-12-12T17:24:35.620Z,14.20
2018-12-12T17:27:07.791Z,14.73
2018-12-12T17:29:39.949Z,13.87
2018-12-12T17:32:12.119Z,15.17
2018-12-12T17:34:44.174Z,15.33
2018-12-12T17:37:16.342Z,13.77
2018-12-12T17:39:48.644Z,16.37
2018-12-12T17:42:20.908Z,14.87
2018-12-12T17:44:53.080Z,14.80
2018-12-12T17:47:25.441Z,16.87
2018-12-12T17:49:57.501Z,14.20
2018-12-12T17:52:29.673Z,14.73
2018-12-12T17:55:01.903Z,15.77
2018-12-12T17:57:34.092Z,16.53
2018-12-12T18:00:07.205Z,15.73
2018-12-12T18:02:39.416Z,17.33
2018-12-12T18:05:15.239Z,15.13
2018-12-12T18:07:45.764Z,15.57
2018-12-12T18:10:17.924Z,16.33
2018-12-12T18:12:50.124Z,15.70
2018-12-12T18:15:22.284Z,16.43
2018-12-12T18:17:54.454Z,15.87
2018-12-12T18:20:26.636Z,17.57
2018-12-12T18:22:58.807Z,16.57
2018-12-12T18:25:30.963Z,16.77
2018-12-12T18:28:03.180Z,16.70
2018-12-12T18:30:35.356Z,18.43
2018-12-12T18:33:07.517Z,17.80
2018-12-12T18:35:39.575Z,20.27
2018-12-12T18:38:11.769Z,19.13
2018-12-12T18:40:43.837Z,20.33
2018-12-12T18:43:16.000Z,21.47
2018-12-12T18:45:48.184Z,20.53
2018-12-12T18:48:20.267Z,20.40
2018-12-12T18:50:52.454Z,22.63
2018-12-12T18:53:24.590Z,23.53
2018-12-12T18:55:56.754Z,22.47
2018-12-12T18:58:28.923Z,23.50
2018-12-12T19:01:01.086Z,23.53
2018-12-12T19:03:33.136Z,21.20
2018-12-12T19:06:05.295Z,20.13
2018-12-12T19:08:37.504Z,20.70
2018-12-12T19:11:09.780Z,21.73
2018-12-12T19:13:42.009Z,21.10
2018-12-12T19:16:14.380Z,21.70
2018-12-12T19:18:46.849Z,21.17
2018-12-12T19:21:19.049Z,22.73
2018-12-12T19:23:51.359Z,20.63
2018-12-12T19:26:23.569Z,20.17
2018-12-12T19:28:55.729Z,20.63
2018-12-12T19:31:27.901Z,20.00
2018-12-12T19:33:59.996Z,22.87
2018-12-12T19:36:32.171Z,21.30
2018-12-12T19:39:06.776Z,22.43
2018-12-12T19:41:39.074Z,23.87
2018-12-12T19:44:11.263Z,22.07
2018-12-12T19:46:43.443Z,20.80
2018-12-12T19:49:15.540Z,20.40
2018-12-12T19:51:47.742Z,20.53
2018-12-12T19:54:19.933Z,20.17
2018-12-12T19:56:52.015Z,19.97
2018-12-12T19:59:24.218Z,20.33
2018-12-12T20:01:56.392Z,18.03
2018-12-12T20:04:28.704Z,22.47
2018-12-12T20:07:00.890Z,18.97
2018-12-12T20:09:32.896Z,19.67
2018-12-12T20:12:05.098Z,18.90
2018-12-12T20:14:37.314Z,20.30
2018-12-12T20:17:09.489Z,19.63
2018-12-12T20:19:41.776Z,19.77
2018-12-12T20:22:14.077Z,25.93
2018-12-12T20:24:46.359Z,25.67
2018-12-12T20:27:18.557Z,23.47
2018-12-12T20:29:50.745Z,25.80
2018-12-12T20:32:22.908Z,24.50
2018-12-12T20:34:54.972Z,24.60
2018-12-12T20:37:27.042Z,24.23
2018-12-12T20:39:59.142Z,23.33
2018-12-12T20:42:31.346Z,22.17
2018-12-12T20:45:03.860Z,22.57
2018-12-12T20:47:35.945Z,21.80
2018-12-12T20:50:08.132Z,21.43
2018-12-12T20:52:40.307Z,21.50
2018-12-12T20:55:12.489Z,20.93
2018-12-12T20:57:44.548Z,20.13
2018-12-12T21:00:16.719Z,18.60
2018-12-12T21:02:48.800Z,19.47
2018-12-12T21:05:20.994Z,18.83
2018-12-12T21:07:53.032Z,20.17
2018-12-12T21:10:25.188Z,19.37
2018-12-12T21:12:57.359Z,21.03
2018-12-12T21:15:29.539Z,21.47
2018-12-12T21:18:01.716Z,21.77
2018-12-12T21:20:33.817Z,21.10
2018-12-12T21:23:05.982Z,21.50
2018-12-12T21:25:38.573Z,21.13
2018-12-12T21:28:10.739Z,21.00
2018-12-12T21:30:42.908Z,22.50
2018-12-12T21:33:15.063Z,23.83
2018-12-12T21:35:47.246Z,21.00
2018-12-12T21:38:19.392Z,20.37
2018-12-12T21:40:51.924Z,20.07
2018-12-12T21:43:23.877Z,20.73
2018-12-12T21:45:56.036Z,22.47
2018-12-12T21:48:28.212Z,22.90
2018-12-12T21:51:00.273Z,21.20
2018-12-12T21:53:32.452Z,20.83
2018-12-12T21:56:04.665Z,21.83
2018-12-12T21:58:36.816Z,20.57
2018-12-12T22:01:08.984Z,22.37
2018-12-12T22:03:41.165Z,21.43
2018-12-12T22:06:13.347Z,21.57
2018-12-12T22:08:45.427Z,22.03
2018-12-12T22:11:17.601Z,21.97
2018-12-12T22:13:49.798Z,23.00
2018-12-12T22:16:21.873Z,25.13
2018-12-12T22:18:54.043Z,23.37
2018-12-12T22:21:26.197Z,23.63
2018-12-12T22:23:58.356Z,27.23
2018-12-12T22:26:30.520Z,28.43
2018-12-12T22:29:02.676Z,25.37
2018-12-12T22:31:34.834Z,26.27
2018-12-12T22:34:06.992Z,25.13
2018-12-12T22:36:39.045Z,25.30
2018-12-12T22:39:11.211Z,21.83
2018-12-12T22:41:43.394Z,22.80
2018-12-12T22:44:15.551Z,22.50
2018-12-12T22:46:47.636Z,20.83
2018-12-12T22:49:19.913Z,22.27
2018-12-12T22:51:52.092Z,21.93
2018-12-12T22:54:24.373Z,21.47
2018-12-12T22:56:56.424Z,23.00
2018-12-12T22:59:28.588Z,23.33
2018-12-12T23:02:00.756Z,22.40
2018-12-12T23:04:33.019Z,22.57
2018-12-12T23:07:05.333Z,23.00
2018-12-12T23:09:37.607Z,22.90
2018-12-12T23:12:09.767Z,23.90
2018-12-12T23:14:42.625Z,24.17
2018-12-12T23:17:14.791Z,21.87
2018-12-12T23:19:46.944Z,23.93
2018-12-12T23:22:19.133Z,22.57
2018-12-12T23:24:51.265Z,21.83
2018-12-12T23:27:23.338Z,21.60
2018-12-12T23:29:55.485Z,21.80
2018-12-12T23:32:27.644Z,22.13
2018-12-12T23:34:59.787Z,22.17
2018-12-12T23:37:31.854Z,23.63
2018-12-12T23:40:04.009Z,21.80
2018-12-12T23:42:36.165Z,21.87
2018-12-12T23:45:08.306Z,21.50
2018-12-12T23:47:40.463Z,21.83
2018-12-12T23:50:12.668Z,23.43
2018-12-12T23:52:44.833Z,22.87
2018-12-12T23:55:16.985Z,22.13
2018-12-12T23:57:49.154Z,21.73
